sensor_id;sensor_type;location;lat;lon;timestamp;temperature;humidity
47576;DHT22;33304;52.456;13.328;2023-12-20T00:02:17;6.80;99.90
47576;DHT22;33304;52.456;13.328;2023-12-20T00:04:44;6.90;99.90
47576;DHT22;33304;52.456;13.328;2023-12-20T00:07:11;6.90;99.90
47576;DHT22;33304;52.456;13.328;2023-12-20T00:09:39;6.90;99.90
47576;DHT22;33304;52.456;13.328;2023-12-20T00:12:06;6.80;99.90
47576;DHT22;33304;52.456;13.328;2023-12-20T00:14:35;6.90;99.90
47576;DHT22;33304;52.456;13.328;2023-12-20T00:17:02;6.80;99.90
47576;DHT22;33304;52.456;13.328;2023-12-20T00:19:29;6.80;99.90
47576;DHT22;33304;52.456;13.328;2023-12-20T00:21:56;6.80;99.90
47576;DHT22;33304;52.456;13.328;2023-12-20T00:24:25;6.70;99.90
47576;DHT22;33304;52.456;13.328;2023-12-20T00:26:52;6.80;99.90
47576;DHT22;33304;52.456;13.328;2023-12-20T00:29:19;6.80;99.90
47576;DHT22;33304;52.456;13.328;2023-12-20T00:31:47;6.90;99.90
47576;DHT22;33304;52.456;13.328;2023-12-20T00:34:14;6.80;99.90
47576;DHT22;33304;52.456;13.328;2023-12-20T00:36:41;6.90;99.90
47576;DHT22;33304;52.456;13.328;2023-12-20T00:39:09;6.80;99.90
47576;DHT22;33304;52.456;13.328;2023-12-20T00:41:36;6.80;99.90
47576;DHT22;33304;52.456;13.328;2023-12-20T00:44:03;6.80;99.90
47576;DHT22;33304;52.456;13.328;2023-12-20T00:46:30;6.80;99.90
47576;DHT22;33304;52.456;13.328;2023-12-20T00:48:58;6.80;99.90
47576;DHT22;33304;52.456;13.328;2023-12-20T00:51:25;6.80;99.90
47576;DHT22;33304;52.456;13.328;2023-12-20T00:53:53;6.80;99.90
47576;DHT22;33304;52.456;13.328;2023-12-20T00:56:20;6.80;99.90
47576;DHT22;33304;52.456;13.328;2023-12-20T00:58:47;6.90;99.90
47576;DHT22;33304;52.456;13.328;2023-12-20T01:01:15;6.90;99.90
47576;DHT22;33304;52.456;13.328;2023-12-20T01:03:43;6.90;99.90
47576;DHT22;33304;52.456;13.328;2023-12-20T01:06:11;6.90;99.90
47576;DHT22;33304;52.456;13.328;2023-12-20T01:08:38;6.90;99.90
47576;DHT22;33304;52.456;13.328;2023-12-20T01:11:05;6.80;99.90
47576;DHT22;33304;52.456;13.328;2023-12-20T01:13:32;6.80;99.90
47576;DHT22;33304;52.456;13.328;2023-12-20T01:16:00;6.80;99.90
47576;DHT22;33304;52.456;13.328;2023-12-20T01:18:27;6.80;99.90
47576;DHT22;33304;52.456;13.328;2023-12-20T01:20:54;6.90;99.90
47576;DHT22;33304;52.456;13.328;2023-12-20T01:23:22;6.80;99.90
47576;DHT22;33304;52.456;13.328;2023-12-20T01:25:49;6.80;99.90
47576;DHT22;33304;52.456;13.328;2023-12-20T01:28:16;6.90;99.90
47576;DHT22;33304;52.456;13.328;2023-12-20T01:30:44;6.90;99.90
47576;DHT22;33304;52.456;13.328;2023-12-20T01:33:11;6.90;99.90
47576;DHT22;33304;52.456;13.328;2023-12-20T01:35:38;6.90;99.90
47576;DHT22;33304;52.456;13.328;2023-12-20T01:38:05;6.80;99.90
47576;DHT22;33304;52.456;13.328;2023-12-20T01:40:34;6.90;99.90
47576;DHT22;33304;52.456;13.328;2023-12-20T01:43:02;6.90;99.90
47576;DHT22;33304;52.456;13.328;2023-12-20T01:45:29;6.80;99.90
47576;DHT22;33304;52.456;13.328;2023-12-20T01:47:57;6.90;99.90
47576;DHT22;33304;52.456;13.328;2023-12-20T01:50:25;6.90;99.90
47576;DHT22;33304;52.456;13.328;2023-12-20T01:52:54;6.90;99.90
47576;DHT22;33304;52.456;13.328;2023-12-20T01:55:23;6.90;99.90
47576;DHT22;33304;52.456;13.328;2023-12-20T01:57:52;6.90;99.90
47576;DHT22;33304;52.456;13.328;2023-12-20T02:00:19;6.90;99.90
47576;DHT22;33304;52.456;13.328;2023-12-20T02:02:50;6.90;99.90
47576;DHT22;33304;52.456;13.328;2023-12-20T02:05:20;6.90;99.90
47576;DHT22;33304;52.456;13.328;2023-12-20T02:07:47;6.80;99.90
47576;DHT22;33304;52.456;13.328;2023-12-20T02:10:15;6.90;99.90
47576;DHT22;33304;52.456;13.328;2023-12-20T02:12:43;6.90;99.90
47576;DHT22;33304;52.456;13.328;2023-12-20T02:15:11;6.90;99.90
47576;DHT22;33304;52.456;13.328;2023-12-20T02:17:38;6.90;99.90
47576;DHT22;33304;52.456;13.328;2023-12-20T02:20:07;6.90;99.90
47576;DHT22;33304;52.456;13.328;2023-12-20T02:22:35;6.90;99.90
47576;DHT22;33304;52.456;13.328;2023-12-20T02:25:02;6.90;99.90
47576;DHT22;33304;52.456;13.328;2023-12-20T02:27:30;6.90;99.90
47576;DHT22;33304;52.456;13.328;2023-12-20T02:29:57;6.90;99.90
47576;DHT22;33304;52.456;13.328;2023-12-20T02:32:25;6.90;99.90
47576;DHT22;33304;52.456;13.328;2023-12-20T02:34:53;6.90;99.90
47576;DHT22;33304;52.456;13.328;2023-12-20T02:37:20;6.90;99.90
47576;DHT22;33304;52.456;13.328;2023-12-20T02:39:49;6.90;99.90
47576;DHT22;33304;52.456;13.328;2023-12-20T02:42:16;6.90;99.90
47576;DHT22;33304;52.456;13.328;2023-12-20T02:44:43;6.90;99.90
47576;DHT22;33304;52.456;13.328;2023-12-20T02:47:10;6.90;99.90
47576;DHT22;33304;52.456;13.328;2023-12-20T02:49:37;7.00;99.90
47576;DHT22;33304;52.456;13.328;2023-12-20T02:52:05;6.90;99.90
47576;DHT22;33304;52.456;13.328;2023-12-20T02:54:32;6.90;99.90
47576;DHT22;33304;52.456;13.328;2023-12-20T02:57:00;6.80;99.90
47576;DHT22;33304;52.456;13.328;2023-12-20T02:59:27;6.90;99.90
47576;DHT22;33304;52.456;13.328;2023-12-20T03:01:54;6.90;99.90
47576;DHT22;33304;52.456;13.328;2023-12-20T03:04:21;6.80;99.90
47576;DHT22;33304;52.456;13.328;2023-12-20T03:06:48;6.80;99.90
47576;DHT22;33304;52.456;13.328;2023-12-20T03:09:16;6.80;99.90
47576;DHT22;33304;52.456;13.328;2023-12-20T03:11:43;6.90;99.90
47576;DHT22;33304;52.456;13.328;2023-12-20T03:14:11;6.90;99.90
47576;DHT22;33304;52.456;13.328;2023-12-20T03:16:38;6.90;99.90
47576;DHT22;33304;52.456;13.328;2023-12-20T03:19:05;6.90;99.90
47576;DHT22;33304;52.456;13.328;2023-12-20T03:21:32;6.90;99.90
47576;DHT22;33304;52.456;13.328;2023-12-20T03:23:59;6.90;99.90
47576;DHT22;33304;52.456;13.328;2023-12-20T03:26:26;6.90;99.90
47576;DHT22;33304;52.456;13.328;2023-12-20T03:28:54;7.00;99.90
47576;DHT22;33304;52.456;13.328;2023-12-20T03:31:22;6.90;99.90
47576;DHT22;33304;52.456;13.328;2023-12-20T03:33:49;6.90;99.90
47576;DHT22;33304;52.456;13.328;2023-12-20T03:36:16;6.90;99.90
47576;DHT22;33304;52.456;13.328;2023-12-20T03:38:43;6.90;99.90
47576;DHT22;33304;52.456;13.328;2023-12-20T03:41:11;6.90;99.90
47576;DHT22;33304;52.456;13.328;2023-12-20T03:43:38;6.90;99.90
47576;DHT22;33304;52.456;13.328;2023-12-20T03:46:05;6.80;99.90
47576;DHT22;33304;52.456;13.328;2023-12-20T03:48:33;6.90;99.90
47576;DHT22;33304;52.456;13.328;2023-12-20T03:51:00;6.90;99.90
47576;DHT22;33304;52.456;13.328;2023-12-20T03:53:27;6.90;99.90
47576;DHT22;33304;52.456;13.328;2023-12-20T03:55:54;7.00;99.90
47576;DHT22;33304;52.456;13.328;2023-12-20T03:58:21;6.90;99.90
47576;DHT22;33304;52.456;13.328;2023-12-20T04:00:48;6.90;99.90
47576;DHT22;33304;52.456;13.328;2023-12-20T04:03:16;6.80;99.90
47576;DHT22;33304;52.456;13.328;2023-12-20T04:05:44;6.80;99.90
47576;DHT22;33304;52.456;13.328;2023-12-20T04:08:11;6.90;99.90
47576;DHT22;33304;52.456;13.328;2023-12-20T04:10:38;6.80;99.90
47576;DHT22;33304;52.456;13.328;2023-12-20T04:13:05;6.80;99.90
47576;DHT22;33304;52.456;13.328;2023-12-20T04:15:32;6.80;99.90
47576;DHT22;33304;52.456;13.328;2023-12-20T04:18:00;6.90;99.90
47576;DHT22;33304;52.456;13.328;2023-12-20T04:20:27;6.70;99.90
47576;DHT22;33304;52.456;13.328;2023-12-20T04:22:55;6.70;99.90
47576;DHT22;33304;52.456;13.328;2023-12-20T04:25:22;6.70;99.90
47576;DHT22;33304;52.456;13.328;2023-12-20T04:27:49;6.70;99.90
47576;DHT22;33304;52.456;13.328;2023-12-20T04:30:16;6.70;99.90
47576;DHT22;33304;52.456;13.328;2023-12-20T04:32:43;6.60;99.90
47576;DHT22;33304;52.456;13.328;2023-12-20T04:35:10;6.50;99.90
47576;DHT22;33304;52.456;13.328;2023-12-20T04:37:38;6.60;99.90
47576;DHT22;33304;52.456;13.328;2023-12-20T04:40:07;6.50;99.90
47576;DHT22;33304;52.456;13.328;2023-12-20T04:42:35;6.60;99.90
47576;DHT22;33304;52.456;13.328;2023-12-20T04:45:02;6.50;99.90
47576;DHT22;33304;52.456;13.328;2023-12-20T04:47:29;6.40;99.90
47576;DHT22;33304;52.456;13.328;2023-12-20T04:49:56;6.40;99.90
47576;DHT22;33304;52.456;13.328;2023-12-20T04:52:23;6.40;99.90
47576;DHT22;33304;52.456;13.328;2023-12-20T04:54:50;6.40;99.90
47576;DHT22;33304;52.456;13.328;2023-12-20T04:57:19;6.30;99.90
47576;DHT22;33304;52.456;13.328;2023-12-20T04:59:46;6.20;99.90
47576;DHT22;33304;52.456;13.328;2023-12-20T05:02:13;6.20;99.90
47576;DHT22;33304;52.456;13.328;2023-12-20T05:04:40;6.20;99.90
47576;DHT22;33304;52.456;13.328;2023-12-20T05:07:07;6.10;99.90
47576;DHT22;33304;52.456;13.328;2023-12-20T05:09:34;6.00;99.90
47576;DHT22;33304;52.456;13.328;2023-12-20T05:12:01;6.10;99.90
47576;DHT22;33304;52.456;13.328;2023-12-20T05:14:29;6.10;99.90
47576;DHT22;33304;52.456;13.328;2023-12-20T05:16:57;6.10;99.90
47576;DHT22;33304;52.456;13.328;2023-12-20T05:19:24;6.10;99.90
47576;DHT22;33304;52.456;13.328;2023-12-20T05:21:52;6.00;99.90
47576;DHT22;33304;52.456;13.328;2023-12-20T05:24:19;6.00;99.90
47576;DHT22;33304;52.456;13.328;2023-12-20T05:26:46;5.90;99.90
47576;DHT22;33304;52.456;13.328;2023-12-20T05:29:13;5.90;99.90
47576;DHT22;33304;52.456;13.328;2023-12-20T05:31:42;5.90;99.90
47576;DHT22;33304;52.456;13.328;2023-12-20T05:34:09;5.80;99.90
47576;DHT22;33304;52.456;13.328;2023-12-20T05:36:36;5.80;99.90
47576;DHT22;33304;52.456;13.328;2023-12-20T05:39:03;5.80;99.90
47576;DHT22;33304;52.456;13.328;2023-12-20T05:41:30;5.80;99.90
47576;DHT22;33304;52.456;13.328;2023-12-20T05:43:57;5.80;99.90
47576;DHT22;33304;52.456;13.328;2023-12-20T05:46:25;5.70;99.90
47576;DHT22;33304;52.456;13.328;2023-12-20T05:48:54;5.70;99.90
47576;DHT22;33304;52.456;13.328;2023-12-20T05:51:21;5.70;99.90
47576;DHT22;33304;52.456;13.328;2023-12-20T05:53:48;5.60;99.90
47576;DHT22;33304;52.456;13.328;2023-12-20T05:56:16;5.60;99.90
47576;DHT22;33304;52.456;13.328;2023-12-20T05:58:43;5.60;99.90
47576;DHT22;33304;52.456;13.328;2023-12-20T06:01:10;5.50;99.90
47576;DHT22;33304;52.456;13.328;2023-12-20T06:03:41;5.50;99.90
47576;DHT22;33304;52.456;13.328;2023-12-20T06:06:10;5.50;99.90
47576;DHT22;33304;52.456;13.328;2023-12-20T06:08:37;5.50;99.90
47576;DHT22;33304;52.456;13.328;2023-12-20T06:11:04;5.50;99.90
47576;DHT22;33304;52.456;13.328;2023-12-20T06:13:31;5.40;99.90
47576;DHT22;33304;52.456;13.328;2023-12-20T06:15:58;5.40;99.90
47576;DHT22;33304;52.456;13.328;2023-12-20T06:18:25;5.50;99.90
47576;DHT22;33304;52.456;13.328;2023-12-20T06:20:52;5.50;99.90
47576;DHT22;33304;52.456;13.328;2023-12-20T06:23:20;5.40;99.90
47576;DHT22;33304;52.456;13.328;2023-12-20T06:25:47;5.40;99.90
47576;DHT22;33304;52.456;13.328;2023-12-20T06:28:14;5.50;99.90
47576;DHT22;33304;52.456;13.328;2023-12-20T06:30:41;5.40;99.90
47576;DHT22;33304;52.456;13.328;2023-12-20T06:33:08;5.40;99.90
47576;DHT22;33304;52.456;13.328;2023-12-20T06:35:35;5.40;99.90
47576;DHT22;33304;52.456;13.328;2023-12-20T06:38:03;5.50;99.90
47576;DHT22;33304;52.456;13.328;2023-12-20T06:40:31;5.40;99.90
47576;DHT22;33304;52.456;13.328;2023-12-20T06:42:58;5.40;99.90
47576;DHT22;33304;52.456;13.328;2023-12-20T06:45:26;5.40;99.90
47576;DHT22;33304;52.456;13.328;2023-12-20T06:47:53;5.40;99.90
47576;DHT22;33304;52.456;13.328;2023-12-20T06:50:20;5.40;99.90
47576;DHT22;33304;52.456;13.328;2023-12-20T06:52:47;5.40;99.90
47576;DHT22;33304;52.456;13.328;2023-12-20T06:55:15;5.40;99.90
47576;DHT22;33304;52.456;13.328;2023-12-20T06:57:44;5.40;99.90
47576;DHT22;33304;52.456;13.328;2023-12-20T07:00:12;5.50;99.90
47576;DHT22;33304;52.456;13.328;2023-12-20T07:02:39;5.50;99.90
47576;DHT22;33304;52.456;13.328;2023-12-20T07:05:07;5.40;99.90
47576;DHT22;33304;52.456;13.328;2023-12-20T07:07:34;5.40;99.90
47576;DHT22;33304;52.456;13.328;2023-12-20T07:10:02;5.40;99.90
47576;DHT22;33304;52.456;13.328;2023-12-20T07:12:29;5.50;99.90
47576;DHT22;33304;52.456;13.328;2023-12-20T07:14:57;5.50;99.90
47576;DHT22;33304;52.456;13.328;2023-12-20T07:17:24;5.50;99.90
47576;DHT22;33304;52.456;13.328;2023-12-20T07:19:51;5.50;99.90
47576;DHT22;33304;52.456;13.328;2023-12-20T07:22:18;5.50;99.90
47576;DHT22;33304;52.456;13.328;2023-12-20T07:24:45;5.60;99.90
47576;DHT22;33304;52.456;13.328;2023-12-20T07:27:13;5.60;99.90
47576;DHT22;33304;52.456;13.328;2023-12-20T07:29:40;5.60;99.90
47576;DHT22;33304;52.456;13.328;2023-12-20T07:32:08;5.60;99.90
47576;DHT22;33304;52.456;13.328;2023-12-20T07:34:35;5.60;99.90
47576;DHT22;33304;52.456;13.328;2023-12-20T07:37:02;5.60;99.90
47576;DHT22;33304;52.456;13.328;2023-12-20T07:39:29;5.70;99.90
47576;DHT22;33304;52.456;13.328;2023-12-20T07:41:57;5.70;99.90
47576;DHT22;33304;52.456;13.328;2023-12-20T07:44:24;5.70;99.90
47576;DHT22;33304;52.456;13.328;2023-12-20T07:46:51;5.70;99.90
47576;DHT22;33304;52.456;13.328;2023-12-20T07:49:20;5.70;99.90
47576;DHT22;33304;52.456;13.328;2023-12-20T07:51:47;5.70;99.90
47576;DHT22;33304;52.456;13.328;2023-12-20T07:54:14;5.70;99.90
47576;DHT22;33304;52.456;13.328;2023-12-20T07:56:41;5.70;99.90
47576;DHT22;33304;52.456;13.328;2023-12-20T07:59:09;5.80;99.90
47576;DHT22;33304;52.456;13.328;2023-12-20T08:01:36;5.70;99.90
47576;DHT22;33304;52.456;13.328;2023-12-20T08:04:03;5.70;99.90
47576;DHT22;33304;52.456;13.328;2023-12-20T08:06:32;5.80;99.90
47576;DHT22;33304;52.456;13.328;2023-12-20T08:08:59;5.80;99.90
47576;DHT22;33304;52.456;13.328;2023-12-20T08:11:26;5.80;98.90
47576;DHT22;33304;52.456;13.328;2023-12-20T08:13:53;5.80;99.40
47576;DHT22;33304;52.456;13.328;2023-12-20T08:16:20;5.70;99.90
47576;DHT22;33304;52.456;13.328;2023-12-20T08:18:47;5.80;99.90
47576;DHT22;33304;52.456;13.328;2023-12-20T08:21:14;5.70;99.90
47576;DHT22;33304;52.456;13.328;2023-12-20T08:23:43;5.70;99.90
47576;DHT22;33304;52.456;13.328;2023-12-20T08:26:11;5.70;99.90
47576;DHT22;33304;52.456;13.328;2023-12-20T08:28:38;5.70;99.90
47576;DHT22;33304;52.456;13.328;2023-12-20T08:31:05;5.70;99.90
47576;DHT22;33304;52.456;13.328;2023-12-20T08:33:32;5.80;99.90
47576;DHT22;33304;52.456;13.328;2023-12-20T08:35:59;5.70;99.90
47576;DHT22;33304;52.456;13.328;2023-12-20T08:38:26;5.80;99.90
47576;DHT22;33304;52.456;13.328;2023-12-20T08:40:54;5.80;99.90
47576;DHT22;33304;52.456;13.328;2023-12-20T08:43:21;5.90;99.90
47576;DHT22;33304;52.456;13.328;2023-12-20T08:45:48;5.90;99.90
47576;DHT22;33304;52.456;13.328;2023-12-20T08:48:15;5.90;99.90
47576;DHT22;33304;52.456;13.328;2023-12-20T08:50:43;5.90;99.90
47576;DHT22;33304;52.456;13.328;2023-12-20T08:53:10;5.90;99.90
47576;DHT22;33304;52.456;13.328;2023-12-20T08:55:37;6.00;99.90
47576;DHT22;33304;52.456;13.328;2023-12-20T08:58:05;5.90;99.90
47576;DHT22;33304;52.456;13.328;2023-12-20T09:00:34;6.00;99.90
47576;DHT22;33304;52.456;13.328;2023-12-20T09:03:01;6.00;99.90
47576;DHT22;33304;52.456;13.328;2023-12-20T09:05:28;6.00;99.10
47576;DHT22;33304;52.456;13.328;2023-12-20T09:07:56;6.10;99.90
47576;DHT22;33304;52.456;13.328;2023-12-20T09:10:23;6.00;99.90
47576;DHT22;33304;52.456;13.328;2023-12-20T09:12:50;6.10;99.90
47576;DHT22;33304;52.456;13.328;2023-12-20T09:15:23;6.20;99.90
47576;DHT22;33304;52.456;13.328;2023-12-20T09:17:50;6.20;99.40
47576;DHT22;33304;52.456;13.328;2023-12-20T09:20:16;6.20;98.40
47576;DHT22;33304;52.456;13.328;2023-12-20T09:22:43;6.20;95.10
47576;DHT22;33304;52.456;13.328;2023-12-20T09:25:10;6.20;95.50
47576;DHT22;33304;52.456;13.328;2023-12-20T09:27:38;6.20;94.60
47576;DHT22;33304;52.456;13.328;2023-12-20T09:30:06;6.20;94.90
47576;DHT22;33304;52.456;13.328;2023-12-20T09:32:35;6.20;95.30
47576;DHT22;33304;52.456;13.328;2023-12-20T09:35:02;6.20;94.70
47576;DHT22;33304;52.456;13.328;2023-12-20T09:37:31;6.20;95.70
47576;DHT22;33304;52.456;13.328;2023-12-20T09:39:58;6.20;94.00
47576;DHT22;33304;52.456;13.328;2023-12-20T09:42:37;6.20;96.00
47576;DHT22;33304;52.456;13.328;2023-12-20T09:45:08;6.30;94.30
47576;DHT22;33304;52.456;13.328;2023-12-20T09:47:37;6.30;91.80
47576;DHT22;33304;52.456;13.328;2023-12-20T09:50:05;6.30;90.30
47576;DHT22;33304;52.456;13.328;2023-12-20T09:52:34;6.30;84.70
47576;DHT22;33304;52.456;13.328;2023-12-20T09:55:04;6.40;85.70
47576;DHT22;33304;52.456;13.328;2023-12-20T09:57:31;6.50;77.90
47576;DHT22;33304;52.456;13.328;2023-12-20T09:59:58;6.60;74.10
47576;DHT22;33304;52.456;13.328;2023-12-20T10:02:26;6.60;77.10
47576;DHT22;33304;52.456;13.328;2023-12-20T10:04:54;6.60;73.30
47576;DHT22;33304;52.456;13.328;2023-12-20T10:07:22;6.60;74.10
47576;DHT22;33304;52.456;13.328;2023-12-20T10:09:51;6.70;66.50
47576;DHT22;33304;52.456;13.328;2023-12-20T10:12:19;6.70;61.40
47576;DHT22;33304;52.456;13.328;2023-12-20T10:14:46;6.70;63.40
47576;DHT22;33304;52.456;13.328;2023-12-20T10:17:13;6.60;61.70
47576;DHT22;33304;52.456;13.328;2023-12-20T10:19:43;6.60;62.60
47576;DHT22;33304;52.456;13.328;2023-12-20T10:22:11;6.70;63.40
47576;DHT22;33304;52.456;13.328;2023-12-20T10:24:40;6.80;57.00
47576;DHT22;33304;52.456;13.328;2023-12-20T10:27:08;6.70;57.20
47576;DHT22;33304;52.456;13.328;2023-12-20T10:29:35;6.70;56.10
47576;DHT22;33304;52.456;13.328;2023-12-20T10:32:22;6.70;54.30
47576;DHT22;33304;52.456;13.328;2023-12-20T10:34:49;6.80;52.60
47576;DHT22;33304;52.456;13.328;2023-12-20T10:37:18;6.80;51.50
47576;DHT22;33304;52.456;13.328;2023-12-20T10:39:49;6.80;52.60
47576;DHT22;33304;52.456;13.328;2023-12-20T10:42:18;6.80;51.10
47576;DHT22;33304;52.456;13.328;2023-12-20T10:44:47;6.80;50.90
47576;DHT22;33304;52.456;13.328;2023-12-20T10:47:15;6.80;49.80
47576;DHT22;33304;52.456;13.328;2023-12-20T10:49:43;6.80;49.30
47576;DHT22;33304;52.456;13.328;2023-12-20T10:52:12;6.90;48.70
47576;DHT22;33304;52.456;13.328;2023-12-20T10:54:41;6.80;48.00
47576;DHT22;33304;52.456;13.328;2023-12-20T10:57:08;6.90;49.00
47576;DHT22;33304;52.456;13.328;2023-12-20T10:59:37;7.00;48.40
47576;DHT22;33304;52.456;13.328;2023-12-20T11:02:05;6.90;46.70
47576;DHT22;33304;52.456;13.328;2023-12-20T11:04:38;7.00;45.50
47576;DHT22;33304;52.456;13.328;2023-12-20T11:07:16;6.90;47.40
47576;DHT22;33304;52.456;13.328;2023-12-20T11:09:54;6.90;46.90
47576;DHT22;33304;52.456;13.328;2023-12-20T11:12:32;6.90;49.70
47576;DHT22;33304;52.456;13.328;2023-12-20T11:14:59;6.90;48.50
47576;DHT22;33304;52.456;13.328;2023-12-20T11:17:31;6.80;52.10
47576;DHT22;33304;52.456;13.328;2023-12-20T11:20:06;6.70;52.60
47576;DHT22;33304;52.456;13.328;2023-12-20T11:22:36;6.70;53.70
47576;DHT22;33304;52.456;13.328;2023-12-20T11:25:08;6.70;54.40
47576;DHT22;33304;52.456;13.328;2023-12-20T11:27:35;6.70;54.50
47576;DHT22;33304;52.456;13.328;2023-12-20T11:30:04;6.70;61.10
47576;DHT22;33304;52.456;13.328;2023-12-20T11:32:34;6.70;58.70
47576;DHT22;33304;52.456;13.328;2023-12-20T11:35:16;6.70;60.80
47576;DHT22;33304;52.456;13.328;2023-12-20T11:37:43;6.60;61.70
47576;DHT22;33304;52.456;13.328;2023-12-20T11:40:15;6.50;62.20
47576;DHT22;33304;52.456;13.328;2023-12-20T11:42:44;6.50;63.30
47576;DHT22;33304;52.456;13.328;2023-12-20T11:45:14;6.50;63.30
47576;DHT22;33304;52.456;13.328;2023-12-20T11:47:43;6.50;60.40
47576;DHT22;33304;52.456;13.328;2023-12-20T11:50:12;6.60;61.20
47576;DHT22;33304;52.456;13.328;2023-12-20T11:52:39;6.60;62.30
47576;DHT22;33304;52.456;13.328;2023-12-20T11:55:06;6.60;66.10
47576;DHT22;33304;52.456;13.328;2023-12-20T11:57:36;6.50;67.30
47576;DHT22;33304;52.456;13.328;2023-12-20T12:00:04;6.50;63.60
47576;DHT22;33304;52.456;13.328;2023-12-20T12:02:38;6.50;64.40
47576;DHT22;33304;52.456;13.328;2023-12-20T12:05:06;6.50;68.10
47576;DHT22;33304;52.456;13.328;2023-12-20T12:07:34;6.50;66.80
47576;DHT22;33304;52.456;13.328;2023-12-20T12:10:01;6.50;63.30
47576;DHT22;33304;52.456;13.328;2023-12-20T12:12:29;6.50;63.20
47576;DHT22;33304;52.456;13.328;2023-12-20T12:14:58;6.60;59.00
47576;DHT22;33304;52.456;13.328;2023-12-20T12:17:25;6.70;56.30
47576;DHT22;33304;52.456;13.328;2023-12-20T12:20:02;6.60;56.70
47576;DHT22;33304;52.456;13.328;2023-12-20T12:22:30;6.70;55.00
47576;DHT22;33304;52.456;13.328;2023-12-20T12:24:59;6.70;54.30
47576;DHT22;33304;52.456;13.328;2023-12-20T12:27:35;6.70;53.10
47576;DHT22;33304;52.456;13.328;2023-12-20T12:30:06;6.80;53.60
47576;DHT22;33304;52.456;13.328;2023-12-20T12:32:34;6.80;56.00
47576;DHT22;33304;52.456;13.328;2023-12-20T12:35:03;6.70;62.00
47576;DHT22;33304;52.456;13.328;2023-12-20T12:37:30;6.60;63.40
47576;DHT22;33304;52.456;13.328;2023-12-20T12:39:57;6.60;67.90
47576;DHT22;33304;52.456;13.328;2023-12-20T12:42:24;6.50;74.00
47576;DHT22;33304;52.456;13.328;2023-12-20T12:44:54;6.40;85.00
47576;DHT22;33304;52.456;13.328;2023-12-20T12:47:23;6.30;92.30
47576;DHT22;33304;52.456;13.328;2023-12-20T12:49:51;6.30;96.80
47576;DHT22;33304;52.456;13.328;2023-12-20T12:52:18;6.30;96.30
47576;DHT22;33304;52.456;13.328;2023-12-20T12:54:45;6.30;98.70
47576;DHT22;33304;52.456;13.328;2023-12-20T12:57:13;6.20;99.90
47576;DHT22;33304;52.456;13.328;2023-12-20T12:59:41;6.20;99.90
47576;DHT22;33304;52.456;13.328;2023-12-20T13:02:08;6.20;99.90
47576;DHT22;33304;52.456;13.328;2023-12-20T13:04:36;6.20;99.90
47576;DHT22;33304;52.456;13.328;2023-12-20T13:07:03;6.10;99.90
47576;DHT22;33304;52.456;13.328;2023-12-20T13:09:31;6.20;99.90
47576;DHT22;33304;52.456;13.328;2023-12-20T13:11:58;6.20;99.90
47576;DHT22;33304;52.456;13.328;2023-12-20T13:14:25;6.20;99.90
47576;DHT22;33304;52.456;13.328;2023-12-20T13:16:52;6.20;99.90
47576;DHT22;33304;52.456;13.328;2023-12-20T13:19:19;6.10;99.90
47576;DHT22;33304;52.456;13.328;2023-12-20T13:21:48;6.10;99.90
47576;DHT22;33304;52.456;13.328;2023-12-20T13:24:15;6.10;99.90
47576;DHT22;33304;52.456;13.328;2023-12-20T13:26:42;6.10;99.90
47576;DHT22;33304;52.456;13.328;2023-12-20T13:29:09;6.00;99.90
47576;DHT22;33304;52.456;13.328;2023-12-20T13:31:36;6.00;99.90
47576;DHT22;33304;52.456;13.328;2023-12-20T13:34:04;5.90;99.90
47576;DHT22;33304;52.456;13.328;2023-12-20T13:36:31;5.70;99.90
47576;DHT22;33304;52.456;13.328;2023-12-20T13:38:59;5.60;99.90
47576;DHT22;33304;52.456;13.328;2023-12-20T13:41:28;5.50;99.90
47576;DHT22;33304;52.456;13.328;2023-12-20T13:43:56;5.50;99.90
47576;DHT22;33304;52.456;13.328;2023-12-20T13:46:23;5.60;99.90
47576;DHT22;33304;52.456;13.328;2023-12-20T13:48:50;5.50;99.90
47576;DHT22;33304;52.456;13.328;2023-12-20T13:51:17;5.50;99.90
47576;DHT22;33304;52.456;13.328;2023-12-20T13:53:44;5.50;99.90
47576;DHT22;33304;52.456;13.328;2023-12-20T13:56:13;5.50;99.90
47576;DHT22;33304;52.456;13.328;2023-12-20T13:58:40;5.60;99.90
47576;DHT22;33304;52.456;13.328;2023-12-20T14:01:08;5.40;99.90
47576;DHT22;33304;52.456;13.328;2023-12-20T14:03:36;5.40;99.90
47576;DHT22;33304;52.456;13.328;2023-12-20T14:06:03;5.40;99.90
47576;DHT22;33304;52.456;13.328;2023-12-20T14:08:30;5.40;99.90
47576;DHT22;33304;52.456;13.328;2023-12-20T14:10:57;5.30;99.90
47576;DHT22;33304;52.456;13.328;2023-12-20T14:13:26;5.30;99.90
47576;DHT22;33304;52.456;13.328;2023-12-20T14:15:53;5.10;99.90
47576;DHT22;33304;52.456;13.328;2023-12-20T14:18:21;5.20;99.90
47576;DHT22;33304;52.456;13.328;2023-12-20T14:20:48;5.10;99.90
47576;DHT22;33304;52.456;13.328;2023-12-20T14:23:16;5.10;99.90
47576;DHT22;33304;52.456;13.328;2023-12-20T14:25:43;5.10;99.90
47576;DHT22;33304;52.456;13.328;2023-12-20T14:28:10;5.10;99.90
47576;DHT22;33304;52.456;13.328;2023-12-20T14:30:41;5.10;99.90
47576;DHT22;33304;52.456;13.328;2023-12-20T14:33:08;5.10;99.90
47576;DHT22;33304;52.456;13.328;2023-12-20T14:35:35;5.00;99.90
47576;DHT22;33304;52.456;13.328;2023-12-20T14:38:03;5.00;99.90
47576;DHT22;33304;52.456;13.328;2023-12-20T14:40:30;5.10;99.90
47576;DHT22;33304;52.456;13.328;2023-12-20T14:42:57;5.20;99.90
47576;DHT22;33304;52.456;13.328;2023-12-20T14:45:24;5.10;99.90
47576;DHT22;33304;52.456;13.328;2023-12-20T14:47:52;5.20;99.90
47576;DHT22;33304;52.456;13.328;2023-12-20T14:50:19;5.20;99.90
47576;DHT22;33304;52.456;13.328;2023-12-20T14:52:47;5.10;99.90
47576;DHT22;33304;52.456;13.328;2023-12-20T14:55:14;5.20;99.90
47576;DHT22;33304;52.456;13.328;2023-12-20T14:57:42;5.20;99.90
47576;DHT22;33304;52.456;13.328;2023-12-20T15:00:10;5.20;99.90
47576;DHT22;33304;52.456;13.328;2023-12-20T15:02:40;5.20;99.90
47576;DHT22;33304;52.456;13.328;2023-12-20T15:05:09;5.20;99.90
47576;DHT22;33304;52.456;13.328;2023-12-20T15:07:36;5.20;99.90
47576;DHT22;33304;52.456;13.328;2023-12-20T15:10:04;5.20;99.90
47576;DHT22;33304;52.456;13.328;2023-12-20T15:12:31;5.20;99.90
47576;DHT22;33304;52.456;13.328;2023-12-20T15:14:59;5.20;99.90
47576;DHT22;33304;52.456;13.328;2023-12-20T15:17:26;5.20;99.90
47576;DHT22;33304;52.456;13.328;2023-12-20T15:19:54;5.20;99.90
47576;DHT22;33304;52.456;13.328;2023-12-20T15:22:22;5.20;99.90
47576;DHT22;33304;52.456;13.328;2023-12-20T15:24:52;5.30;99.90
47576;DHT22;33304;52.456;13.328;2023-12-20T15:27:20;5.30;99.90
47576;DHT22;33304;52.456;13.328;2023-12-20T15:29:47;5.30;98.00
47576;DHT22;33304;52.456;13.328;2023-12-20T15:32:15;5.30;94.70
47576;DHT22;33304;52.456;13.328;2023-12-20T15:34:44;5.30;94.00